Time;durP1;ratioP1;P1;durP2;ratioP2;P2;SDS_P1;SDS_P2;PMS_P1;PMS_P2;Temp;Humidity;BMP_temperature;BMP_pressure;BME280_temperature;BME280_humidity;BME280_pressure;Samples;Min_cycle;Max_cycle;Signal;HPM_P1;HPM_P2
2022/02/08 00:02:09;;;;;;;;;;;0.90;99.90;;;;;;5032522;28;19918;-81
2022/02/08 00:04:35;;;;;;;;;;;0.90;99.90;;;;;;5041683;28;19921;-81
2022/02/08 00:07:03;;;;;;;;;;;0.90;99.90;;;;;;5015954;28;20334;-83
2022/02/08 00:09:30;;;;;;;;;;;0.90;99.90;;;;;;5033266;28;19979;-80
2022/02/08 00:11:55;;;;;;;;;;;0.90;99.90;;;;;;5033066;28;19917;-80
2022/02/08 00:14:21;;;;;;;;;;;0.90;99.90;;;;;;5015983;28;20405;-81
2022/02/08 00:16:47;;;;;;;;;;;0.80;99.90;;;;;;5033504;28;19933;-80
2022/02/08 00:19:12;;;;;;;;;;;0.80;99.90;;;;;;5034042;28;19917;-80
2022/02/08 00:21:38;;;;;;;;;;;0.80;99.90;;;;;;5013433;28;20028;-81
2022/02/08 00:24:03;;;;;;;;;;;0.80;99.90;;;;;;5034800;28;20371;-80
2022/02/08 00:26:29;;;;;;;;;;;0.80;99.90;;;;;;5030593;28;19921;-83
2022/02/08 00:28:55;;;;;;;;;;;0.80;99.90;;;;;;5045420;28;19922;-80
2022/02/08 00:31:20;;;;;;;;;;;0.70;99.90;;;;;;5042870;28;20295;-80
2022/02/08 00:33:46;;;;;;;;;;;0.80;99.90;;;;;;5032744;28;20126;-80
2022/02/08 00:36:11;;;;;;;;;;;0.70;99.90;;;;;;5032660;28;19952;-83
2022/02/08 00:38:37;;;;;;;;;;;0.70;99.90;;;;;;5024168;28;19921;-80
2022/02/08 00:41:04;;;;;;;;;;;0.70;99.90;;;;;;5047115;28;19921;-80
2022/02/08 00:43:48;;;;;;;;;;;0.70;99.90;;;;;;5032825;28;19913;-80
2022/02/08 00:46:25;;;;;;;;;;;0.70;99.90;;;;;;5031962;28;20536;-80
2022/02/08 00:48:58;;;;;;;;;;;0.70;99.90;;;;;;5032596;28;19913;-80
2022/02/08 00:51:26;;;;;;;;;;;0.70;99.90;;;;;;5013642;28;19918;-80
2022/02/08 00:53:52;;;;;;;;;;;0.70;99.90;;;;;;5047071;28;19917;-80
2022/02/08 00:56:17;;;;;;;;;;;0.70;99.90;;;;;;5017816;28;19913;-80
2022/02/08 00:58:44;;;;;;;;;;;0.70;99.90;;;;;;5028829;28;19914;-80
2022/02/08 01:01:10;;;;;;;;;;;0.60;99.90;;;;;;5027715;28;19917;-80
2022/02/08 01:03:35;;;;;;;;;;;0.60;99.90;;;;;;5047924;28;20271;-80
2022/02/08 01:06:06;;;;;;;;;;;0.60;99.90;;;;;;5048403;28;19913;-80
2022/02/08 01:08:34;;;;;;;;;;;0.60;99.90;;;;;;5045644;28;19913;-80
2022/02/08 01:11:00;;;;;;;;;;;0.60;99.90;;;;;;5016712;28;19968;-80
2022/02/08 01:13:25;;;;;;;;;;;0.60;99.90;;;;;;5037895;28;20318;-80
2022/02/08 01:15:51;;;;;;;;;;;0.60;99.90;;;;;;5041431;28;19914;-81
2022/02/08 01:18:17;;;;;;;;;;;0.60;99.90;;;;;;5031537;28;19917;-79
2022/02/08 01:20:43;;;;;;;;;;;0.60;99.90;;;;;;5045435;28;19922;-82
2022/02/08 01:23:09;;;;;;;;;;;0.60;99.90;;;;;;5031824;28;19914;-80
2022/02/08 01:25:42;;;;;;;;;;;0.60;99.90;;;;;;5024832;28;19927;-80
2022/02/08 01:28:19;;;;;;;;;;;0.60;99.90;;;;;;5044173;28;19971;-80
2022/02/08 01:33:33;;;;;;;;;;;0.80;99.90;;;;;;5035192;28;19921;-79
2022/02/08 01:36:22;;;;;;;;;;;0.80;99.90;;;;;;5040472;28;19917;-80
2022/02/08 01:38:52;;;;;;;;;;;0.80;99.90;;;;;;5046279;28;19948;-80
2022/02/08 01:51:47;;;;;;;;;;;0.90;99.90;;;;;;5035553;28;20338;-80
2022/02/08 01:54:12;;;;;;;;;;;1.00;99.90;;;;;;5035911;28;19971;-80
2022/02/08 01:56:38;;;;;;;;;;;1.00;99.90;;;;;;5025530;28;19917;-80
2022/02/08 01:59:04;;;;;;;;;;;1.00;99.90;;;;;;5033866;28;19917;-82
2022/02/08 02:01:34;;;;;;;;;;;1.00;99.90;;;;;;5042971;28;20032;-83
2022/02/08 02:04:00;;;;;;;;;;;1.00;99.90;;;;;;5035032;28;20040;-80
2022/02/08 02:06:26;;;;;;;;;;;1.00;99.90;;;;;;5046833;28;19913;-80
2022/02/08 02:08:53;;;;;;;;;;;0.90;99.90;;;;;;5044946;28;19967;-80
2022/02/08 02:11:19;;;;;;;;;;;1.00;99.90;;;;;;5031827;28;20421;-81
2022/02/08 02:13:50;;;;;;;;;;;1.00;99.90;;;;;;5034625;28;20457;-83
2022/02/08 02:16:37;;;;;;;;;;;1.00;99.90;;;;;;5012029;28;19924;-80
2022/02/08 02:19:03;;;;;;;;;;;1.00;99.90;;;;;;5018381;28;20160;-80
2022/02/08 02:21:33;;;;;;;;;;;1.00;99.90;;;;;;5026813;28;19917;-83
2022/02/08 02:23:58;;;;;;;;;;;1.00;99.90;;;;;;5032701;28;20004;-79
2022/02/08 02:26:26;;;;;;;;;;;1.00;99.90;;;;;;5033690;28;20000;-81
2022/02/08 02:28:52;;;;;;;;;;;1.00;99.90;;;;;;5027981;28;20171;-80
2022/02/08 02:31:20;;;;;;;;;;;1.00;99.90;;;;;;5044743;28;20040;-84
2022/02/08 02:33:45;;;;;;;;;;;1.10;99.90;;;;;;5030661;28;19932;-83
2022/02/08 02:36:14;;;;;;;;;;;1.10;99.90;;;;;;5033853;28;19925;-80
2022/02/08 02:38:40;;;;;;;;;;;1.10;99.90;;;;;;5080452;23;19975;-81
2022/02/08 02:41:07;;;;;;;;;;;1.10;99.90;;;;;;5022160;28;19918;-81
2022/02/08 02:43:33;;;;;;;;;;;1.10;99.90;;;;;;4999551;28;19967;-81
2022/02/08 02:46:01;;;;;;;;;;;1.10;99.90;;;;;;5023886;28;19917;-81
2022/02/08 02:48:28;;;;;;;;;;;1.10;99.90;;;;;;5031495;28;19917;-81
2022/02/08 02:50:56;;;;;;;;;;;1.10;99.90;;;;;;5014919;28;19914;-81
2022/02/08 02:53:36;;;;;;;;;;;1.00;99.90;;;;;;5015411;28;19918;-81
2022/02/08 02:56:08;;;;;;;;;;;1.10;99.90;;;;;;5014923;28;19918;-81
2022/02/08 02:58:37;;;;;;;;;;;1.10;99.90;;;;;;5011547;28;19922;-81
2022/02/08 03:01:23;;;;;;;;;;;1.10;99.90;;;;;;5011830;28;19968;-81
2022/02/08 03:20:04;;;;;;;;;;;1.20;99.90;;;;;;5015885;28;20008;-79
2022/02/08 03:22:31;;;;;;;;;;;1.20;99.90;;;;;;5014082;28;19918;-81
2022/02/08 03:24:57;;;;;;;;;;;1.20;99.90;;;;;;5027563;28;19961;-80
2022/02/08 03:27:24;;;;;;;;;;;1.20;99.90;;;;;;5026921;28;19967;-80
2022/02/08 03:29:51;;;;;;;;;;;1.20;99.90;;;;;;5004249;28;19914;-81
2022/02/08 03:32:19;;;;;;;;;;;1.20;99.90;;;;;;5033843;28;19931;-81
2022/02/08 03:34:46;;;;;;;;;;;1.30;99.90;;;;;;4997372;28;19918;-82
2022/02/08 03:37:12;;;;;;;;;;;1.30;99.90;;;;;;5010931;28;20446;-80
2022/02/08 03:39:41;;;;;;;;;;;1.20;99.90;;;;;;5010613;28;19957;-81
2022/02/08 03:42:19;;;;;;;;;;;1.20;99.90;;;;;;5001625;28;19929;-81
2022/02/08 03:44:48;;;;;;;;;;;1.20;99.90;;;;;;4981517;28;19917;-82
2022/02/08 03:47:16;;;;;;;;;;;1.20;99.90;;;;;;5009983;28;19930;-82
2022/02/08 03:49:41;;;;;;;;;;;1.30;99.90;;;;;;5009703;28;19914;-80
2022/02/08 03:52:07;;;;;;;;;;;1.30;99.90;;;;;;5039918;28;19921;-82
2022/02/08 03:54:38;;;;;;;;;;;1.30;99.90;;;;;;4994878;28;19920;-81
2022/02/08 03:57:07;;;;;;;;;;;1.40;99.90;;;;;;5015655;28;19928;-81
2022/02/08 03:59:34;;;;;;;;;;;1.40;99.90;;;;;;5009952;28;20287;-81
2022/02/08 04:07:16;;;;;;;;;;;1.30;99.90;;;;;;5001768;28;19949;-81
2022/02/08 04:09:42;;;;;;;;;;;1.40;99.90;;;;;;5013405;28;19967;-81
2022/02/08 04:12:15;;;;;;;;;;;1.40;99.90;;;;;;5009830;28;19913;-81
2022/02/08 04:14:59;;;;;;;;;;;1.40;99.90;;;;;;5011085;28;19973;-81
2022/02/08 04:41:36;;;;;;;;;;;1.50;99.90;;;;;;5014726;28;19924;-81
2022/02/08 04:49:30;;;;;;;;;;;1.50;99.90;;;;;;5012174;28;20011;-81
2022/02/08 04:52:01;;;;;;;;;;;1.50;99.90;;;;;;5013571;28;19918;-81
2022/02/08 04:54:43;;;;;;;;;;;1.50;99.90;;;;;;5005183;28;19921;-80
2022/02/08 04:57:19;;;;;;;;;;;1.50;99.90;;;;;;5019507;28;19921;-81
2022/02/08 05:35:28;;;;;;;;;;;1.60;99.90;;;;;;5004813;28;20284;-81
2022/02/08 05:40:35;;;;;;;;;;;1.60;99.90;;;;;;4999666;28;19914;-81
2022/02/08 05:43:18;;;;;;;;;;;1.60;99.90;;;;;;5010545;28;19961;-82
2022/02/08 05:48:26;;;;;;;;;;;1.60;99.90;;;;;;5007322;28;19917;-80
2022/02/08 05:51:03;;;;;;;;;;;1.60;99.90;;;;;;5015928;28;19919;-81
2022/02/08 05:53:42;;;;;;;;;;;1.60;99.90;;;;;;5013663;28;20308;-79
2022/02/08 05:56:08;;;;;;;;;;;1.60;99.90;;;;;;4995477;28;19913;-80
2022/02/08 05:58:34;;;;;;;;;;;1.60;99.90;;;;;;5000726;28;19910;-80
2022/02/08 06:01:00;;;;;;;;;;;1.60;99.90;;;;;;5021556;28;20344;-81
2022/02/08 06:03:38;;;;;;;;;;;1.70;99.90;;;;;;5008029;28;19971;-81
2022/02/08 06:06:05;;;;;;;;;;;1.60;99.90;;;;;;5022540;28;19996;-81
2022/02/08 06:08:31;;;;;;;;;;;1.60;99.90;;;;;;5039175;28;19960;-81
2022/02/08 06:11:13;;;;;;;;;;;1.60;99.90;;;;;;5029799;28;19918;-81
2022/02/08 06:13:39;;;;;;;;;;;1.60;99.90;;;;;;5029062;28;19917;-81
2022/02/08 06:16:07;;;;;;;;;;;1.70;99.90;;;;;;5027063;28;19921;-81
2022/02/08 06:18:32;;;;;;;;;;;1.70;99.90;;;;;;5018540;28;20344;-81
2022/02/08 06:20:58;;;;;;;;;;;1.70;99.90;;;;;;5017481;28;20071;-81
2022/02/08 06:23:24;;;;;;;;;;;1.70;99.90;;;;;;5022254;28;19921;-82
2022/02/08 06:25:50;;;;;;;;;;;1.70;99.90;;;;;;5039516;28;19936;-81
2022/02/08 06:28:17;;;;;;;;;;;1.70;99.90;;;;;;5013455;28;19918;-82
2022/02/08 06:30:45;;;;;;;;;;;1.70;99.90;;;;;;5003694;28;19967;-82
2022/02/08 06:33:12;;;;;;;;;;;1.70;99.90;;;;;;5015323;28;19928;-81
2022/02/08 06:35:38;;;;;;;;;;;1.70;99.90;;;;;;5047411;28;20019;-82
2022/02/08 06:38:08;;;;;;;;;;;1.80;99.90;;;;;;5022979;28;20009;-82
2022/02/08 06:40:35;;;;;;;;;;;1.70;99.90;;;;;;5005427;28;20623;-81
2022/02/08 06:43:03;;;;;;;;;;;1.70;99.90;;;;;;5034012;28;20004;-80
2022/02/08 06:45:28;;;;;;;;;;;1.70;99.90;;;;;;5027206;28;19939;-81
2022/02/08 06:47:54;;;;;;;;;;;1.70;99.90;;;;;;5008765;28;19926;-82
2022/02/08 06:50:20;;;;;;;;;;;1.70;99.90;;;;;;5014112;28;20283;-82
2022/02/08 06:52:46;;;;;;;;;;;1.70;99.90;;;;;;5038267;28;19929;-82
2022/02/08 06:55:12;;;;;;;;;;;1.70;99.90;;;;;;5026758;28;19913;-82
2022/02/08 06:57:52;;;;;;;;;;;1.70;99.90;;;;;;5023883;28;19917;-82
2022/02/08 07:00:21;;;;;;;;;;;1.70;99.90;;;;;;5036255;28;20528;-80
2022/02/08 07:02:48;;;;;;;;;;;1.70;99.90;;;;;;5044161;28;19989;-80
2022/02/08 07:05:13;;;;;;;;;;;1.70;99.90;;;;;;5020842;28;20055;-80
2022/02/08 07:07:39;;;;;;;;;;;1.70;99.90;;;;;;5006523;28;21318;-80
2022/02/08 07:10:05;;;;;;;;;;;1.70;99.90;;;;;;5018723;28;19933;-80
2022/02/08 07:12:30;;;;;;;;;;;1.70;99.90;;;;;;5037229;28;20055;-81
2022/02/08 07:14:56;;;;;;;;;;;1.70;99.90;;;;;;5032783;28;19918;-80
2022/02/08 07:17:22;;;;;;;;;;;1.70;99.90;;;;;;5037505;28;20079;-80
2022/02/08 07:19:48;;;;;;;;;;;1.70;99.90;;;;;;5023605;28;19921;-81
2022/02/08 07:22:13;;;;;;;;;;;1.70;99.90;;;;;;5035500;28;19918;-81
2022/02/08 07:24:39;;;;;;;;;;;1.70;99.90;;;;;;5006268;28;19924;-80
2022/02/08 07:27:05;;;;;;;;;;;1.80;99.90;;;;;;5039883;28;19921;-81
2022/02/08 07:29:32;;;;;;;;;;;1.80;99.90;;;;;;5024180;28;19983;-80
2022/02/08 07:32:01;;;;;;;;;;;1.80;99.90;;;;;;5040204;28;20004;-80
2022/02/08 07:34:38;;;;;;;;;;;1.70;99.90;;;;;;5025551;28;19921;-79
2022/02/08 07:39:48;;;;;;;;;;;1.80;99.90;;;;;;5020173;28;19917;-79
2022/02/08 07:42:14;;;;;;;;;;;1.80;99.90;;;;;;5028847;28;19921;-81
2022/02/08 07:44:40;;;;;;;;;;;1.70;99.90;;;;;;5030056;28;19966;-80
2022/02/08 07:47:10;;;;;;;;;;;1.80;99.90;;;;;;5018675;28;19925;-80
2022/02/08 07:49:40;;;;;;;;;;;1.70;99.90;;;;;;5013290;28;20289;-80
2022/02/08 07:52:06;;;;;;;;;;;1.80;99.90;;;;;;5035749;28;20709;-79
2022/02/08 07:54:32;;;;;;;;;;;1.80;99.90;;;;;;5017689;28;19910;-79
2022/02/08 07:56:57;;;;;;;;;;;1.80;99.90;;;;;;5028561;28;19925;-81
2022/02/08 07:59:23;;;;;;;;;;;1.80;99.90;;;;;;5021220;28;19960;-80
2022/02/08 08:01:48;;;;;;;;;;;1.80;99.90;;;;;;5025095;28;19948;-78
2022/02/08 08:04:14;;;;;;;;;;;1.90;99.90;;;;;;5046742;28;19924;-81
2022/02/08 08:06:40;;;;;;;;;;;1.90;99.90;;;;;;5032594;28;20005;-81
2022/02/08 08:09:05;;;;;;;;;;;1.90;99.90;;;;;;5033017;28;19979;-81
2022/02/08 08:11:40;;;;;;;;;;;1.90;99.90;;;;;;5018551;28;19977;-79
2022/02/08 08:14:07;;;;;;;;;;;1.90;99.90;;;;;;5038043;28;19928;-81
2022/02/08 08:21:33;;;;;;;;;;;1.90;99.90;;;;;;5038617;28;19945;-80
2022/02/08 08:23:59;;;;;;;;;;;1.90;99.90;;;;;;5016823;28;19985;-79
2022/02/08 08:26:24;;;;;;;;;;;1.90;99.90;;;;;;5024081;28;19948;-78
2022/02/08 08:28:50;;;;;;;;;;;1.90;99.90;;;;;;5007903;28;19918;-81
2022/02/08 08:31:16;;;;;;;;;;;1.90;99.90;;;;;;5011571;28;20283;-80
2022/02/08 08:33:42;;;;;;;;;;;1.90;99.90;;;;;;5037589;28;19957;-80
2022/02/08 08:36:07;;;;;;;;;;;2.00;99.90;;;;;;5037752;28;19918;-81
2022/02/08 08:38:34;;;;;;;;;;;2.00;99.90;;;;;;5014281;28;20377;-81
2022/02/08 08:44:37;;;;;;;;;;;2.10;99.90;;;;;;5029331;28;19924;-80
2022/02/08 08:51:49;;;;;;;;;;;2.10;99.90;;;;;;5047470;28;19917;-85
2022/02/08 08:54:14;;;;;;;;;;;2.20;99.90;;;;;;5045477;28;19921;-85
2022/02/08 08:56:42;;;;;;;;;;;2.20;99.90;;;;;;5026502;28;20280;-85
2022/02/08 08:59:08;;;;;;;;;;;2.20;99.90;;;;;;5028263;28;19913;-85
2022/02/08 09:01:34;;;;;;;;;;;2.20;99.90;;;;;;5057323;28;19924;-85
2022/02/08 09:04:00;;;;;;;;;;;2.20;99.90;;;;;;5043274;28;19913;-85
2022/02/08 09:06:26;;;;;;;;;;;2.20;99.90;;;;;;5028849;28;20337;-85
2022/02/08 09:08:52;;;;;;;;;;;2.30;99.90;;;;;;5042213;28;20004;-85
2022/02/08 09:14:09;;;;;;;;;;;2.30;99.90;;;;;;5044897;28;20329;-85
2022/02/08 09:16:51;;;;;;;;;;;2.30;99.90;;;;;;5019692;28;19917;-85
2022/02/08 09:19:51;;;;;;;;;;;2.30;99.90;;;;;;5026521;28;19917;-84
2022/02/08 09:22:31;;;;;;;;;;;2.40;99.90;;;;;;5033368;28;19917;-85
2022/02/08 09:30:03;;;;;;;;;;;2.40;99.90;;;;;;5029873;28;19944;-84
2022/02/08 09:32:41;;;;;;;;;;;2.40;99.90;;;;;;5039864;28;19921;-84
2022/02/08 09:35:08;;;;;;;;;;;2.40;99.90;;;;;;5046156;28;19919;-84
2022/02/08 09:37:34;;;;;;;;;;;2.40;99.90;;;;;;5044127;28;19995;-84
2022/02/08 09:40:00;;;;;;;;;;;2.50;99.90;;;;;;5033375;28;19918;-84
2022/02/08 09:42:26;;;;;;;;;;;2.50;99.90;;;;;;5030580;28;19924;-85
2022/02/08 09:44:53;;;;;;;;;;;2.50;99.90;;;;;;5047421;28;19920;-84
2022/02/08 09:47:28;;;;;;;;;;;2.50;99.90;;;;;;5030716;28;19916;-84
2022/02/08 09:49:55;;;;;;;;;;;2.50;99.90;;;;;;5062341;28;19971;-85
2022/02/08 09:52:22;;;;;;;;;;;2.60;99.90;;;;;;5053874;28;20667;-85
2022/02/08 09:54:48;;;;;;;;;;;2.60;99.90;;;;;;5033882;28;19943;-84
2022/02/08 09:57:14;;;;;;;;;;;2.60;99.90;;;;;;5029716;28;19944;-84
2022/02/08 09:59:41;;;;;;;;;;;2.60;99.90;;;;;;5027838;28;19962;-84
2022/02/08 10:02:07;;;;;;;;;;;2.60;99.90;;;;;;5033671;28;20282;-84
2022/02/08 10:04:32;;;;;;;;;;;2.70;99.90;;;;;;5033656;28;19912;-84
2022/02/08 10:07:18;;;;;;;;;;;2.80;99.90;;;;;;5032515;28;19924;-83
2022/02/08 10:09:44;;;;;;;;;;;2.80;99.90;;;;;;5040621;28;19913;-84
2022/02/08 10:12:10;;;;;;;;;;;2.90;99.90;;;;;;5027743;28;19919;-85
2022/02/08 10:22:57;;;;;;;;;;;3.10;99.90;;;;;;5043004;28;19919;-84
2022/02/08 10:25:39;;;;;;;;;;;3.20;99.90;;;;;;5045608;28;19952;-85
2022/02/08 10:31:26;;;;;;;;;;;3.40;99.90;;;;;;5051063;28;19913;-85
2022/02/08 10:39:25;;;;;;;;;;;3.60;99.90;;;;;;5044410;28;20307;-85
2022/02/08 10:41:51;;;;;;;;;;;3.70;99.90;;;;;;5030820;28;19923;-85
2022/02/08 10:44:16;;;;;;;;;;;3.70;99.90;;;;;;5044234;28;19921;-85
2022/02/08 10:46:42;;;;;;;;;;;3.70;99.90;;;;;;5047769;28;20395;-86
2022/02/08 10:49:09;;;;;;;;;;;3.70;99.90;;;;;;5045030;28;19917;-84
2022/02/08 10:51:45;;;;;;;;;;;3.70;99.90;;;;;;5039994;28;19953;-86
2022/02/08 10:54:17;;;;;;;;;;;3.70;99.90;;;;;;5049533;28;19921;-85
2022/02/08 10:56:44;;;;;;;;;;;3.70;99.90;;;;;;5033215;28;19917;-84
2022/02/08 10:59:18;;;;;;;;;;;3.70;99.90;;;;;;5036114;28;19912;-86
2022/02/08 11:01:58;;;;;;;;;;;3.70;99.90;;;;;;5036417;28;19921;-84
2022/02/08 11:04:47;;;;;;;;;;;3.80;99.90;;;;;;5026668;28;19913;-85
2022/02/08 11:09:53;;;;;;;;;;;3.80;99.90;;;;;;5042752;28;19999;-85
2022/02/08 11:15:50;;;;;;;;;;;3.80;99.90;;;;;;5035704;28;19913;-84
2022/02/08 11:26:33;;;;;;;;;;;3.80;99.90;;;;;;5049614;28;19967;-84
2022/02/08 11:29:40;;;;;;;;;;;3.80;99.90;;;;;;5023251;28;19920;-84
2022/02/08 11:32:17;;;;;;;;;;;3.80;99.90;;;;;;4991458;28;19978;-84
2022/02/08 11:44:04;;;;;;;;;;;4.00;99.90;;;;;;5046446;28;19920;-87
2022/02/08 11:54:25;;;;;;;;;;;4.00;99.90;;;;;;5035913;28;19931;-85
2022/02/08 11:59:54;;;;;;;;;;;4.10;99.90;;;;;;5049090;28;20338;-85
2022/02/08 12:07:22;;;;;;;;;;;4.20;99.90;;;;;;5047315;28;20275;-84
2022/02/08 12:10:03;;;;;;;;;;;4.20;99.90;;;;;;5044629;28;19917;-85
2022/02/08 12:56:08;;;;;;;;;;;4.50;99.90;;;;;;5064633;28;19996;-88
2022/02/08 14:11:06;;;;;;;;;;;4.50;99.90;;;;;;5041578;28;19924;-86
2022/02/08 14:21:13;;;;;;;;;;;4.50;99.90;;;;;;5063047;28;19913;-86
2022/02/08 15:06:40;;;;;;;;;;;4.70;99.90;;;;;;5051841;28;19936;-87
2022/02/08 15:09:05;;;;;;;;;;;4.70;99.90;;;;;;5043426;28;20384;-88
2022/02/08 15:11:46;;;;;;;;;;;4.70;99.90;;;;;;5033359;28;19923;-85
2022/02/08 15:14:12;;;;;;;;;;;4.70;99.90;;;;;;5052269;28;19925;-87
2022/02/08 15:16:37;;;;;;;;;;;4.70;99.90;;;;;;5061736;22;19936;-81
2022/02/08 15:19:03;;;;;;;;;;;4.80;99.90;;;;;;5051740;28;19913;-79
2022/02/08 15:21:32;;;;;;;;;;;4.70;99.90;;;;;;5047743;28;19920;-81
2022/02/08 15:24:00;;;;;;;;;;;4.80;99.90;;;;;;5035242;28;19920;-81
2022/02/08 15:26:26;;;;;;;;;;;4.80;99.90;;;;;;5031276;28;20042;-79
2022/02/08 15:28:52;;;;;;;;;;;4.80;99.90;;;;;;5012353;28;19924;-79
2022/02/08 15:31:18;;;;;;;;;;;4.80;99.90;;;;;;5047490;28;19913;-79
2022/02/08 15:33:44;;;;;;;;;;;4.80;99.90;;;;;;5010453;28;19991;-79
2022/02/08 15:36:09;;;;;;;;;;;4.80;99.90;;;;;;4998063;28;20486;-79
2022/02/08 15:38:37;;;;;;;;;;;4.80;99.90;;;;;;5042925;28;19913;-79
2022/02/08 15:41:03;;;;;;;;;;;4.80;99.90;;;;;;5030745;28;20405;-79
2022/02/08 15:43:28;;;;;;;;;;;4.70;99.90;;;;;;5012817;28;19917;-78
2022/02/08 15:45:59;;;;;;;;;;;4.80;99.90;;;;;;5028426;28;20876;-79
2022/02/08 15:48:25;;;;;;;;;;;4.80;99.90;;;;;;5031805;28;19914;-80
2022/02/08 15:51:12;;;;;;;;;;;4.80;99.90;;;;;;5029618;28;20036;-78
2022/02/08 16:01:28;;;;;;;;;;;4.70;99.90;;;;;;5031798;28;19924;-80
2022/02/08 16:09:22;;;;;;;;;;;4.70;99.90;;;;;;5030958;28;20401;-80
2022/02/08 16:12:09;;;;;;;;;;;4.80;99.90;;;;;;5024557;28;20398;-80
2022/02/08 16:17:17;;;;;;;;;;;4.70;99.90;;;;;;5029532;28;19940;-80
2022/02/08 16:53:39;;;;;;;;;;;4.70;99.90;;;;;;5030388;28;19999;-78
2022/02/08 16:56:14;;;;;;;;;;;4.70;99.90;;;;;;5010315;28;20075;-79
2022/02/08 16:59:01;;;;;;;;;;;4.70;99.90;;;;;;5025355;28;19921;-78
2022/02/08 17:01:28;;;;;;;;;;;4.70;99.90;;;;;;5024664;28;19918;-78
2022/02/08 17:03:54;;;;;;;;;;;4.70;99.90;;;;;;5042003;28;19952;-78
2022/02/08 17:06:24;;;;;;;;;;;4.70;99.90;;;;;;5026074;28;20002;-78
2022/02/08 17:08:56;;;;;;;;;;;4.70;99.90;;;;;;5028027;28;19925;-78
2022/02/08 17:11:29;;;;;;;;;;;4.70;99.90;;;;;;4996153;28;20469;-78
2022/02/08 17:46:33;;;;;;;;;;;4.70;99.90;;;;;;5021838;28;19983;-78
2022/02/08 17:48:59;;;;;;;;;;;4.70;99.90;;;;;;5039758;28;19924;-78
2022/02/08 17:51:24;;;;;;;;;;;4.80;99.90;;;;;;5026441;28;19913;-78
2022/02/08 17:53:50;;;;;;;;;;;4.80;99.90;;;;;;5018352;28;20024;-78
2022/02/08 17:56:16;;;;;;;;;;;4.80;99.90;;;;;;5037192;28;19944;-79
2022/02/08 17:58:44;;;;;;;;;;;4.80;99.90;;;;;;5020028;28;19918;-78
2022/02/08 18:01:09;;;;;;;;;;;4.80;99.90;;;;;;5034770;28;19921;-78
2022/02/08 18:03:35;;;;;;;;;;;4.80;99.90;;;;;;5048851;28;20397;-79
2022/02/08 18:06:01;;;;;;;;;;;4.90;99.90;;;;;;5007300;28;20419;-79
2022/02/08 18:08:27;;;;;;;;;;;4.90;99.90;;;;;;4999445;28;19922;-81
2022/02/08 18:10:56;;;;;;;;;;;4.90;99.90;;;;;;5015687;28;19957;-81
2022/02/08 18:13:23;;;;;;;;;;;4.80;99.90;;;;;;5004711;28;19921;-79
2022/02/08 18:15:48;;;;;;;;;;;4.90;99.90;;;;;;5027351;28;20372;-79
2022/02/08 18:18:27;;;;;;;;;;;4.80;99.90;;;;;;5010566;28;19992;-78
2022/02/08 18:21:11;;;;;;;;;;;4.80;99.90;;;;;;5024368;28;19956;-81
2022/02/08 19:09:49;;;;;;;;;;;4.90;99.90;;;;;;5025547;28;19917;-79
2022/02/08 19:12:20;;;;;;;;;;;4.90;99.90;;;;;;5026066;28;19913;-78
2022/02/08 19:20:00;;;;;;;;;;;4.90;99.90;;;;;;5027584;28;19917;-78
2022/02/08 19:22:27;;;;;;;;;;;4.90;99.90;;;;;;5029020;28;19956;-78
2022/02/08 19:24:53;;;;;;;;;;;4.90;99.90;;;;;;5025199;28;19925;-79
2022/02/08 19:27:19;;;;;;;;;;;4.90;99.90;;;;;;5025103;28;19920;-79
2022/02/08 19:29:45;;;;;;;;;;;4.90;99.90;;;;;;5036833;28;19917;-78
2022/02/08 19:32:11;;;;;;;;;;;4.90;99.90;;;;;;5027521;28;19921;-79
2022/02/08 19:34:37;;;;;;;;;;;5.00;99.90;;;;;;5028074;28;20276;-81
2022/02/08 19:37:07;;;;;;;;;;;4.90;99.90;;;;;;5025852;28;19917;-83
2022/02/08 19:39:34;;;;;;;;;;;4.90;99.90;;;;;;5021471;28;19914;-81
2022/02/08 19:42:00;;;;;;;;;;;4.90;99.90;;;;;;5029402;28;19913;-83
2022/02/08 19:44:26;;;;;;;;;;;5.00;99.90;;;;;;5011273;28;20318;-83
2022/02/08 19:46:52;;;;;;;;;;;5.00;99.90;;;;;;5006711;28;19972;-80
2022/02/08 19:49:17;;;;;;;;;;;4.90;99.90;;;;;;5036615;28;20016;-81
2022/02/08 19:51:43;;;;;;;;;;;5.00;99.90;;;;;;5015803;28;19921;-81
2022/02/08 19:54:12;;;;;;;;;;;5.00;99.90;;;;;;5010635;28;19929;-80
2022/02/08 19:56:47;;;;;;;;;;;5.00;99.90;;;;;;5022742;28;19917;-80
2022/02/08 19:59:19;;;;;;;;;;;5.00;99.90;;;;;;5030792;28;20405;-81
2022/02/08 20:01:48;;;;;;;;;;;5.00;99.90;;;;;;4993133;28;19922;-83
2022/02/08 20:04:19;;;;;;;;;;;5.00;99.90;;;;;;5021695;28;19924;-80
2022/02/08 20:06:45;;;;;;;;;;;5.00;99.90;;;;;;5023808;28;19913;-82
2022/02/08 20:09:11;;;;;;;;;;;5.00;99.90;;;;;;5039420;28;20275;-81
2022/02/08 20:11:37;;;;;;;;;;;5.10;99.90;;;;;;5014216;28;20008;-84
2022/02/08 20:14:03;;;;;;;;;;;5.10;99.90;;;;;;5042687;28;19917;-83
2022/02/08 20:16:30;;;;;;;;;;;5.00;99.90;;;;;;5042393;28;19928;-84
2022/02/08 20:18:59;;;;;;;;;;;5.10;99.90;;;;;;5003381;28;19996;-81
2022/02/08 20:21:26;;;;;;;;;;;5.10;99.90;;;;;;5028779;28;20372;-82
2022/02/08 20:23:53;;;;;;;;;;;5.00;99.90;;;;;;5024834;28;20328;-82
2022/02/08 20:26:23;;;;;;;;;;;4.90;99.90;;;;;;5025511;28;20386;-81
2022/02/08 20:28:51;;;;;;;;;;;5.00;99.90;;;;;;5025601;28;19914;-78
2022/02/08 20:31:17;;;;;;;;;;;5.00;99.90;;;;;;5019629;28;19921;-79
2022/02/08 20:33:43;;;;;;;;;;;5.00;99.90;;;;;;5040209;28;20066;-78
2022/02/08 20:36:09;;;;;;;;;;;4.90;99.90;;;;;;5024814;28;19917;-81
2022/02/08 20:38:35;;;;;;;;;;;4.90;99.90;;;;;;5013219;28;20444;-79
2022/02/08 20:41:00;;;;;;;;;;;5.00;99.90;;;;;;5010235;28;19913;-80
2022/02/08 20:43:32;;;;;;;;;;;5.00;99.90;;;;;;5010695;28;20294;-80
2022/02/08 20:45:58;;;;;;;;;;;5.00;99.90;;;;;;5006146;28;19960;-80
2022/02/08 20:50:59;;;;;;;;;;;5.00;99.90;;;;;;5027492;28;19925;-80
2022/02/08 20:53:47;;;;;;;;;;;5.00;99.90;;;;;;5012728;28;19918;-82
2022/02/08 20:56:23;;;;;;;;;;;5.10;99.90;;;;;;5003789;28;19921;-81
2022/02/08 20:58:52;;;;;;;;;;;5.00;99.90;;;;;;5026370;28;19925;-79
2022/02/08 21:01:18;;;;;;;;;;;5.10;99.90;;;;;;5013711;28;20322;-79
2022/02/08 21:04:01;;;;;;;;;;;5.10;99.90;;;;;;5016596;28;20036;-78
2022/02/08 21:06:28;;;;;;;;;;;5.10;99.90;;;;;;5006492;28;19989;-81
2022/02/08 21:08:55;;;;;;;;;;;5.10;99.90;;;;;;5009837;28;19924;-79
2022/02/08 21:11:27;;;;;;;;;;;5.10;99.90;;;;;;5009748;28;19922;-81
2022/02/08 21:14:04;;;;;;;;;;;5.10;99.90;;;;;;5012693;28;20470;-80
2022/02/08 21:16:31;;;;;;;;;;;5.10;99.90;;;;;;5002858;28;19965;-81
2022/02/08 21:18:58;;;;;;;;;;;5.10;99.90;;;;;;5016618;28;19920;-79
2022/02/08 21:21:24;;;;;;;;;;;5.10;99.90;;;;;;4997237;28;19917;-79
2022/02/08 21:23:52;;;;;;;;;;;5.10;99.90;;;;;;5005187;28;19922;-79
2022/02/08 21:26:23;;;;;;;;;;;5.20;99.90;;;;;;5012153;28;19913;-79
2022/02/08 21:48:27;;;;;;;;;;;5.10;99.90;;;;;;4985191;28;20318;-82
2022/02/08 21:53:14;;;;;;;;;;;5.00;99.90;;;;;;5010524;28;19929;-78
2022/02/08 21:55:40;;;;;;;;;;;5.00;99.90;;;;;;5003019;28;20028;-79
2022/02/08 21:58:07;;;;;;;;;;;5.00;99.90;;;;;;5026573;28;20013;-79
2022/02/08 22:00:33;;;;;;;;;;;5.00;99.90;;;;;;5022175;28;19924;-80
2022/02/08 22:02:59;;;;;;;;;;;5.00;99.90;;;;;;5010418;28;19917;-79
2022/02/08 22:05:25;;;;;;;;;;;5.00;99.90;;;;;;5010440;28;19913;-79
2022/02/08 22:23:51;;;;;;;;;;;5.10;99.90;;;;;;5010085;28;19914;-82
2022/02/08 22:31:46;;;;;;;;;;;5.00;99.90;;;;;;5009921;28;19918;-79
2022/02/08 22:34:21;;;;;;;;;;;5.00;99.90;;;;;;5004979;28;19918;-78
2022/02/08 22:36:53;;;;;;;;;;;5.00;99.90;;;;;;5003349;28;19938;-78
2022/02/08 22:39:34;;;;;;;;;;;5.00;99.90;;;;;;5009499;28;19918;-79
2022/02/08 22:42:10;;;;;;;;;;;5.00;99.90;;;;;;5022815;28;19945;-79
2022/02/08 22:47:08;;;;;;;;;;;5.10;99.90;;;;;;5004644;28;20466;-79
2022/02/08 22:49:34;;;;;;;;;;;5.00;99.90;;;;;;5021673;28;19951;-81
2022/02/08 22:51:59;;;;;;;;;;;5.00;99.90;;;;;;4991471;28;20645;-79
2022/02/08 22:54:26;;;;;;;;;;;5.10;99.90;;;;;;5027955;28;20443;-79
2022/02/08 22:56:52;;;;;;;;;;;5.10;99.90;;;;;;5007707;28;19960;-79
2022/02/08 22:59:19;;;;;;;;;;;5.10;99.90;;;;;;5007763;28;19929;-79
2022/02/08 23:01:45;;;;;;;;;;;5.10;99.90;;;;;;4996030;28;20284;-78
2022/02/08 23:04:14;;;;;;;;;;;5.10;99.90;;;;;;4994372;28;19917;-79
2022/02/08 23:06:40;;;;;;;;;;;5.10;99.90;;;;;;4998117;28;19921;-79
2022/02/08 23:09:14;;;;;;;;;;;5.10;99.90;;;;;;5014201;28;19917;-79
2022/02/08 23:14:55;;;;;;;;;;;5.10;99.90;;;;;;4975148;28;19921;-79
2022/02/08 23:39:01;;;;;;;;;;;5.20;99.90;;;;;;5007548;28;20410;-80
2022/02/08 23:41:26;;;;;;;;;;;5.20;99.90;;;;;;5004852;28;20363;-80
2022/02/08 23:43:53;;;;;;;;;;;5.20;99.90;;;;;;5000259;28;19954;-80
2022/02/08 23:46:21;;;;;;;;;;;5.20;99.90;;;;;;4994243;28;19917;-80
2022/02/08 23:51:23;;;;;;;;;;;5.10;99.90;;;;;;5025346;28;20422;-77
2022/02/08 23:53:57;;;;;;;;;;;5.20;99.90;;;;;;5015655;28;20586;-77
2022/02/08 23:56:41;;;;;;;;;;;5.10;99.90;;;;;;5029215;28;19924;-78
2022/02/08 23:59:10;;;;;;;;;;;5.20;99.90;;;;;;5013448;28;19914;-78
